Daybreak2
, South Jordan
Last Weather Update:03/29/2012 12:00:00 PM
Date
ETo
ETc
Rain
Irrigation
Req
Temp
Max
Temp
Min
Temp
Avg
Avg RH
Avg Wind
Avg Solar
inches
inches
incehs
inches
F
F
F
%
%
watts/m2
02/01/2012 0.06" 0.00" 0.00" 0.00" 47.1° 28.3° 36.1° 61.5% 7.7 MPH 59.8w/m2
02/02/2012 0.04" 0.00" 0.02" -0.02" 36.9° 29.3° 32.8° 81.9% 9.7 MPH 118.1w/m2
02/03/2012 0.06" 0.00" 0.00" 0.00" 41.4° 26.2° 32.7° 62.9% 5.3 MPH 142.2w/m2
02/04/2012 0.06" 0.00" 0.00" 0.00" 41.4° 24.3° 31.5° 55.3% 5.1 MPH 148.3w/m2
02/05/2012 0.06" 0.00" 0.00" 0.00" 43.1° 24.6° 31.9° 55.6% 4.7 MPH 147.7w/m2
02/06/2012 0.06" 0.00" 0.00" 0.00" 41.9° 22.3° 30.8° 63.7% 4.7 MPH 147.6w/m2
02/07/2012 0.07" 0.00" 0.00" 0.00" 45.0° 23.0° 33.5° 53.6% 6.2 MPH 150.3w/m2
02/08/2012 0.05" 0.00" 0.00" 0.00" 43.1° 33.0° 36.8° 61.6% 5.4 MPH 78.8w/m2
02/09/2012 0.03" 0.00" 0.00" 0.00" 41.6° 30.1° 36.8° 78.6% 3.1 MPH 68.3w/m2
02/10/2012 0.07" 0.00" 0.00" 0.00" 52.5° 35.4° 41.9° 64.4% 6.5 MPH 109.6w/m2
02/11/2012 0.08" 0.00" 0.05" -0.05" 56.5° 35.8° 43.2° 53.7% 7.1 MPH 108.5w/m2
02/12/2012 0.01" 0.00" 0.04" -0.04" 39.6° 32.2° 35.7° 90.6% 5.8 MPH 35.8w/m2
02/13/2012 0.05" 0.00" 0.00" 0.00" 44.1° 32.0° 36.9° 76.5% 5.5 MPH 107.1w/m2
02/14/2012 0.06" 0.00" 0.00" 0.00" 42.4° 31.0° 35.7° 75.9% 4.9 MPH 129.8w/m2
02/15/2012 0.04" 0.00" 0.02" -0.02" 43.3° 30.5° 34.7° 83.8% 5.8 MPH 115.2w/m2
02/16/2012 0.05" 0.00" 0.00" 0.00" 39.9° 26.5° 32.1° 75.8% 4.7 MPH 160.4w/m2
02/17/2012 0.05" 0.00" 0.00" 0.00" 42.2° 24.6° 32.1° 66.0% 5.2 MPH 116.6w/m2
02/18/2012 0.07" 0.00" 0.00" 0.00" 43.6° 27.1° 35.1° 62.7% 7.8 MPH 143.7w/m2
02/19/2012 0.04" 0.00" 0.00" 0.00" 31.4° 24.3° 27.8° 81.6% 8.2 MPH 128.4w/m2
02/20/2012 0.05" 0.00" 0.47" -0.47" 34.3° 15.7° 27.0° 68.1% 7.5 MPH 164.4w/m2
02/21/2012 0.07" 0.00" 0.00" 0.00" 43.1° 31.2° 37.5° 56.8% 8.6 MPH 97.5w/m2
02/22/2012 0.10" 0.00" 0.00" 0.00" 55.9° 37.6° 47.0° 56.5% 8.0 MPH 130.3w/m2
02/23/2012 0.07" 0.00" 0.01" -0.01" 43.5° 27.9° 32.8° 49.2% 10.1 MPH 151.5w/m2
02/24/2012 0.09" 0.00" 0.00" 0.00" 43.1° 24.0° 34.0° 46.1% 6.8 MPH 187.7w/m2
02/25/2012 0.10" 0.00" 0.00" 0.00" 52.4° 26.5° 35.3° 44.2% 12.8 MPH 163.7w/m2
02/26/2012 0.08" 0.00" 0.00" 0.00" 36.5° 20.4° 29.3° 37.2% 5.0 MPH 189.4w/m2
02/27/2012 0.08" 0.00" 0.00" 0.00" 50.7° 30.7° 37.9° 39.8% 6.3 MPH 88.8w/m2
02/28/2012 0.04" 0.00" 0.03" -0.03" 36.0° 27.6° 32.3° 78.4% 5.7 MPH 92.6w/m2
02/29/2012 0.07" 0.00" 0.00" 0.00" 45.7° 25.6° 33.9° 71.9% 11.6 MPH 103.1w/m2
Totals: 1.76" 0.00" 0.64" -0.64" 56.5° 15.7° 34.7° 63.9% 6.8 MPH 123.6w/m2